Aboyne, United Kingdom

11:55 AM GMT on March 05, 2015 (GMT +0000)
ISCOTLAN34 | Change Station
CLOSE
Current Station
Personal Weather Station
Location: Aboyne, SCOTLAND
Elevation: 680 ft
Nearby Weather Stations

Elev 680 ft 57.04 °N, 2.72 °W | Updated 11 seconds ago

Partly Cloudy
Partly Cloudy
50.0 °F
Feels Like 45 °F
N
14.0
Wind Variable Wind from West
Gusts 24.0 mph

Today
High -- | Low -- °F
--% Chance of Precip.
Yesterday
High -- | Low -- °F
Precip. -- in
6:54 AM 5:51 PM
Full, 100% visible
Pressure 30.21 in
Visibility 6.2 miles
Clouds Few 4500 ft
Windchill 45 °F
Dew Point 40 °F
Humidity 67%
Rainfall in
Snow Depth Not available.
UV 1.6 out of 12
Pollen Not available.
Air Quality Not available.
Flu Activity Not available.
METAR EGPD 051150Z 26012G22KT 220V310 9999 FEW045 13/03 Q1023 NOSIG

More Conditions Fewer Conditions

Pressure 30.21 in
Visibility 6.2 miles
Clouds Few 4500 ft
Windchill 45 °F
Dew Point 40 °F
Humidity 67%
Rainfall in
Snow Depth Not available.
UV 1.6 out of 12
Pollen Not available.
Air Quality Not available.
Flu Activity Not available.
METAR EGPD 051150Z 26012G22KT 220V310 9999 FEW045 13/03 Q1023 NOSIG

More Conditions Fewer Conditions

10-Day Weather Forecast

Almanac

Astronomy

Mar. 05, 2015 Rise Set
Actual Time
Civil Twilight
Nautical Twilight
Astronomical Twilight
Moon
Length of Visible Light
Length of Day
Tomorrow will be .
, % of the Moon is Illuminated

Today's Extremes

Country Highs Country Lows

Community

WunderPhotos

Upload Photos

1,802,716 photos uploaded!

WunderBlogs® & News

Nearby

Air Quality

  Air Quality AQ Index Pollutant
Not available.

Snow Depth

Station Depth Elevation

Earthquake Activity

City Distance Mag. Time & Date
Minimum magnitude displayed is 2.5.

Coastal Water Temperatures

Place Temperature

Nearby Weather Stations